WetterOnline ( https://www.wetteronline.de )

Wetter aktuell Zweckham

Aktuelles Wetter: Chieming (553m)

6-stündlich | Neueste Meldungen
Ortszeit Temperatur Wetter
Mo, 30.01. 7:00 -6.2° C wolkig
Mo, 30.01. 1:00 -4.6° C wolkenlos
So, 29.01. 19:00 -1.2° C bedeckt
So, 29.01. 13:00 -0.3° C bedeckt
So, 29.01. 7:00 -2.5° C wolkig
So, 29.01. 1:00 -2.6° C bewölkt
Sa, 28.01. 19:00 -1.7° C bedeckt
Sa, 28.01. 13:00 -0.8° C bedeckt
Ortszeit Temperatur Wetter
Mo, 30.01. 9:00 -4.8° C wolkig
Mo, 30.01. 8:40 -4.5° C bewölkt
Mo, 30.01. 8:30 -4.6° C bewölkt
Mo, 30.01. 8:20 -4.6° C bewölkt
Mo, 30.01. 8:10 -4.7° C bewölkt
Mo, 30.01. 8:00 -5.4° C wolkig
Mo, 30.01. 7:50 -5.4° C wolkig
Mo, 30.01. 7:30 -5.3° C wolkig
Mo, 30.01. 7:00 -6.2° C wolkig
Mo, 30.01. 6:30 -5.8° C bewölkt
Mo, 30.01. 6:00 -5.7° C bewölkt
Ortszeit Relative Feuchte Sichtweite
Mo, 30.01. 7:00 90% 10 km
Mo, 30.01. 1:00 87% 18 km
So, 29.01. 19:00 81% 19 km
So, 29.01. 13:00 65% 35 km
So, 29.01. 7:00 81% 24 km
So, 29.01. 1:00 91% 7 km
Sa, 28.01. 19:00 88% 11 km
Sa, 28.01. 13:00 74% 25 km
Ortszeit Relative Feuchte Sichtweite
Mo, 30.01. 9:00 81% 23 km
Mo, 30.01. 8:40 83% -
Mo, 30.01. 8:30 86% 15 km
Mo, 30.01. 8:20 86% -
Mo, 30.01. 8:10 89% -
Mo, 30.01. 8:00 91% 11 km
Mo, 30.01. 7:50 91% -
Mo, 30.01. 7:30 93% 7 km
Mo, 30.01. 7:00 90% 10 km
Mo, 30.01. 6:30 87% 21 km
Mo, 30.01. 6:00 87% 25 km
Ortszeit Niederschlagsmenge Niederschlagsart
Mo, 30.01. 7:00 0.0 l/m2 in 12 Std. -
Mo, 30.01. 1:00 0.0 l/m2 in 6 Std. -
So, 29.01. 19:00 0.0 l/m2 in 12 Std. -
So, 29.01. 13:00 0.0 l/m2 in 6 Std. -
So, 29.01. 7:00 0.1 l/m2 in 12 Std. Sprühregen
So, 29.01. 1:00 0.1 l/m2 in 6 Std. Sprühregen
Sa, 28.01. 19:00 0.1 l/m2 in 12 Std. Schnee
Sa, 28.01. 13:00 0.1 l/m2 in 6 Std. Schnee
Ortszeit Niederschlagsmenge Niederschlagsart
Mo, 30.01. 9:00 0.0 l/m2 in 1 Std. -
Mo, 30.01. 8:40 keine Meldung -
Mo, 30.01. 8:30 0.0 l/m2 in 30 Min -
Mo, 30.01. 8:20 keine Meldung -
Mo, 30.01. 8:10 keine Meldung -
Mo, 30.01. 8:00 0.0 l/m2 in 1 Std. -
Mo, 30.01. 7:50 keine Meldung -
Mo, 30.01. 7:30 0.0 l/m2 in 30 Min -
Mo, 30.01. 7:00 0.0 l/m2 in 1 Std. -
Mo, 30.01. 6:30 0.0 l/m2 in 30 Min -
Mo, 30.01. 6:00 0.0 l/m2 in 1 Std. -
Ortszeit Stärke Spitze Richtung
km/h Bft. km/h Grad Sektor
Mo, 30.01. 7:00 11 2 18 190° S
Mo, 30.01. 1:00 6 1 22 170° S
So, 29.01. 19:00 7 2 14 210° SW
So, 29.01. 13:00 4 1 18 270° W
So, 29.01. 7:00 4 1 11 230° SW
So, 29.01. 1:00 4 1 14 110° O
Sa, 28.01. 19:00 4 1 11 120° SO
Sa, 28.01. 13:00 4 1 7 360° N
Ortszeit Stärke Spitze Richtung
km/h Bft. km/h Grad Sektor
Mo, 30.01. 9:00 7 2 14 200° S
Mo, 30.01. 8:40 9 2 - 210° SW
Mo, 30.01. 8:30 7 2 14 190° S
Mo, 30.01. 8:20 7 2 - 190° S
Mo, 30.01. 8:10 11 2 - 180° S
Mo, 30.01. 8:00 4 1 14 170° S
Mo, 30.01. 7:50 4 1 - 170° S
Mo, 30.01. 7:30 7 2 11 240° SW
Mo, 30.01. 7:00 11 2 18 190° S
Mo, 30.01. 6:30 11 2 14 200° S
Mo, 30.01. 6:00 9 2 15 180° S
Ortszeit Untergrenze Bedeckung Gattung
total tief tief mittel hoch
Mo, 30.01. 7:00 <30 m 8/8 0/8 - - -
Mo, 30.01. 1:00 - 0/8 0/8 - - -
So, 29.01. 19:00 540 m 8/8 8/8 - - -
So, 29.01. 13:00 600 m 8/8 8/8 - - -
So, 29.01. 7:00 720 m 6/8 6/8 - - -
So, 29.01. 1:00 270 m 7/8 7/8 - - -
Sa, 28.01. 19:00 660 m 8/8 8/8 - - -
Sa, 28.01. 13:00 330 m 8/8 8/8 - - -
Ortszeit Bedeckungsgrad in Achtel und Wolkenuntergrenze
Mo, 30.01. 9:00 4(1800m) 4(8700m) 7(9000m)
Mo, 30.01. 8:40 7
Mo, 30.01. 8:30 6(1800m) 8(3000m) 8(9000m)
Mo, 30.01. 8:20 6(1800m) 8(3000m) 8(9000m)
Mo, 30.01. 8:10 7
Mo, 30.01. 8:00 1(1800m) 4(7800m) 7(8400m)
Mo, 30.01. 7:50 1(1800m) 4(7800m) 7(8400m)
Mo, 30.01. 7:30 3(3900m) 7(7500m) 8(8100m)
Mo, 30.01. 7:00 1(<30m) 8(3900m) 8(7200m)
Mo, 30.01. 6:30 5(1800m) 8(4800m) 8(5700m)
Mo, 30.01. 6:00 5(4500m) 8(8100m)
Ortszeit Luftdruck NN (hPa) Tendenz (hPa in 3 Std.)
Mo, 30.01. 7:00 1025 - 0,6
Mo, 30.01. 1:00 1027 - 1,2
So, 29.01. 19:00 1029 + 0,9
So, 29.01. 13:00 1029 0,0
So, 29.01. 7:00 1030 - 0,2
So, 29.01. 1:00 1030 + 0,3
Sa, 28.01. 19:00 1029 + 1,3
Sa, 28.01. 13:00 1026 0,0
Ortszeit Luftdruck NN (hPa) Tendenz (hPa in 3 Std.)
Mo, 30.01. 9:00 1025 - 0,8
Mo, 30.01. 8:40 1025 keine Meldung
Mo, 30.01. 8:30 1025 - 0,8
Mo, 30.01. 8:20 1025 keine Meldung
Mo, 30.01. 8:10 1025 keine Meldung
Mo, 30.01. 8:00 1025 - 0,9
Mo, 30.01. 7:50 1025 keine Meldung
Mo, 30.01. 7:30 1025 - 1,0
Mo, 30.01. 7:00 1025 - 0,6
Mo, 30.01. 6:30 1026 - 0,3
Mo, 30.01. 6:00 1026 - 0,3
Ortszeit Schneehöhe (cm)
Mo, 30.01. 7:00 4
Mo, 30.01. 1:00 4
So, 29.01. 19:00 4
So, 29.01. 13:00 4
So, 29.01. 7:00 5
So, 29.01. 1:00 5
Sa, 28.01. 19:00 5
Sa, 28.01. 13:00 6
Ortszeit Schneehöhe (cm)
Mo, 30.01. 9:00 4
Mo, 30.01. 8:40 4
Mo, 30.01. 8:30 4
Mo, 30.01. 8:20 4
Mo, 30.01. 8:10 4
Mo, 30.01. 8:00 4
Mo, 30.01. 7:50 4
Mo, 30.01. 7:30 4
Mo, 30.01. 7:00 4
Mo, 30.01. 6:30 4
Mo, 30.01. 6:00 4
Link zu dieser Seite / Seite empfehlen

Das Wetter in ...